Logo AVAMET
Benvolgut visitant, si us plau, ingressa Recuperar contrasenya
AVAMET paisatges

Xàbia Montgó/Castellans

Dades diàries. Acumulats / Últims 30 dies disponibles

Data Temperatura (°C) Humitat rel. (%) Pressió rel. (hPa) Vent (km/h) Precipitació
Mínima Mitjana Màxima Amplitud
tèrmica
Mínima Mitjana Màxima Mínima Mitjana Màxima Predom. Mitjana Ràfega
màxima
Total
(mm)
Índex-n
Mínima Mitjana Màxima Mínima Mitjana Màxima n
0 a 1
P0 max
mm 5'
Dades mensuals acumulades fins l'últim dia disponible
09/2020 19,1 20,8 23,3 24,1 24,8 28,3 30,9 11,8 28 69 93 1.010 1.017 1.025   2,1 37,0 16,4
Dades anuals acumulades fins l'últim dia disponible
2020 6,4 16,6 25,5 19,8 12,1 23,9 35,7 29,3 15 72 97 1.001 1.017 1.034   2,2 51,5 417,8
Últims 30 dies disponibles
25-09-2020 20,8     23,3     26,8 6,0 28 43 57 1.013 1.015 1.019 OSO 5,4 35,4 0,0
24-09-2020 23,3     27,3     30,9 7,6 39 48 63 1.011 1.012 1.014 W 3,5 30,6 0,0
23-09-2020 21,6     25,2     30,1 8,5 44 66 86 1.010 1.012 1.013 SW 1,1 17,7 0,0
22-09-2020 20,2     24,2     28,7 8,5 55 69 89 1.012 1.014 1.015 ESE 1,6 22,5 0,2
21-09-2020 22,6     25,0     29,0 6,4 44 57 72 1.015 1.015 1.016 W 2,3 20,9 0,0
20-09-2020 21,8     25,2     29,0 7,2 41 55 71 1.015 1.016 1.017 SW 3,7 22,5 0,0
19-09-2020 19,6     24,3     28,5 8,9 50 70 91 1.013 1.015 1.016 E 2,1 20,9 0,0
18-09-2020 20,9     23,1     25,0 4,1 56 78 92 1.013 1.015 1.017 SW 1,9 37,0 0,8
17-09-2020 22,2     24,2     27,9 5,7 69 81 91 1.014 1.016 1.017 ESE 0,6 14,5 0,0
16-09-2020 21,1     24,9     29,4 8,3 60 79 92 1.016 1.018 1.020 ESE 1,3 17,7 0,0
15-09-2020 22,2     24,4     29,1 6,9 66 81 91 1.019 1.020 1.022 W 2,6 20,9 0,0
14-09-2020 21,1     24,5     28,3 7,2 62 80 91 1.020 1.022 1.023 W 2,6 16,1 0,0
13-09-2020 22,4     25,3     30,9 8,5 42 68 90 1.020 1.022 1.023 W 3,1 17,7 0,0
12-09-2020 20,4     25,3     30,8 10,4 45 65 86 1.015 1.017 1.020 ESE 1,0 22,5 0,0
11-09-2020 19,6     25,0     30,9 11,3 38 62 83 1.013 1.014 1.016 SW 1,9 20,9 0,0
10-09-2020 19,8     22,9     27,2 7,4 57 75 86 1.016 1.018 1.020 W 2,4 19,3 0,0
09-09-2020 19,4     22,1     25,8 6,4 63 76 85 1.019 1.020 1.021 NW 2,7 22,5 0,0
08-09-2020 19,4     22,0     26,4 7,0 49 69 85 1.020 1.021 1.023 W 1,9 24,1 0,2
07-09-2020 19,9     21,8     24,8 4,9 74 82 93 1.014 1.016 1.020 SW 1,8 27,4 15,2
06-09-2020 20,8     24,1     29,1 8,3 59 76 88 1.015 1.016 1.018 W 2,4 19,3 0,0
05-09-2020 20,1     23,9     28,1 8,0 57 74 87 1.017 1.019 1.022 ESE 1,8 17,7 0,0
04-09-2020 20,8     24,3     28,1 7,3 58 72 84 1.021 1.023 1.025 E 1,3 17,7 0,0
03-09-2020 20,6     24,5     28,7 8,1 50 69 85 1.019 1.021 1.023 ESE 1,6 20,9 0,0
02-09-2020 20,3     23,7     27,7 7,4 58 70 80 1.013 1.015 1.019 ESE 1,9 19,3 0,0
01-09-2020 19,1     23,2     27,3 8,2 53 65 80 1.010 1.013 1.017 ESE 1,1 14,5 0,0
31-08-2020 19,5     22,6     26,2 6,7 46 62 74 1.016 1.017 1.020 SSO 3,5 25,7 0,0
30-08-2020 19,5     21,8     25,8 6,3 43 60 80 1.008 1.012 1.016 NW 4,3 33,8 0,0
29-08-2020 17,4     22,6     26,1 8,7 73 87 96 1.001 1.003 1.008 NW 3,2 35,4 79,8 0,50 12,50
28-08-2020 23,9     27,1     31,6 7,7 54 79 93 1.001 1.006 1.012 SSW 2,3 29,0 0,0
27-08-2020 22,7     28,2     32,7 10,0 45 68 91 1.012 1.015 1.018 ESE 2,4 30,6 0,0
Últims 13 mesos disponibles
08/2020 17,4 23,1 25,5 26,7 25,8 31,2 35,7 18,3 53 71 87 1.003 1.013 1.018 ESE 2,6 35,4 80,2
07/2020 20,7 22,9 24,8 25,9 23,9 29,8 33,2 12,5 47 73 86 1.011 1.015 1.020 W 3,4 35,4 1,8
06/2020 15,1 19,2 21,9 22,9 20,5 27,4 30,3 15,2 43 72 87 1.004 1.014 1.020 W 2,6 41,8 35,4
05/2020 13,4 17,2 21,4 20,9 19,4 25,5 30,7 17,3 47 68 86 1.005 1.016 1.026 W 2,0 43,5 13,2
04/2020 10,3 13,3 17,8 15,8 14,7 19,4 25,2 14,9 47 78 95 1.005 1.016 1.026 W 2,2 45,1 65,4
03/2020 8,2 11,8 17,2 14,6 12,1 18,1 24,7 16,5 41 71 94 1.007 1.017 1.026 W 1,9 51,5 77,2
02/2020 8,3 11,7 16,0 15,5 14,1 20,0 26,7 18,4 31 71 89 1.014 1.025 1.033 SW 0,7 37,0 2,8
01/2020 6,4 9,5 14,8 12,5 12,5 16,1 21,7 15,3 48 75 96 1.014 1.025 1.032 NW 2,4 49,9 125,4
12/2019 8,6 12,1 16,6 14,6 13,0 17,8 23,9 15,3 44 71 92 1.004 1.018 1.032 NW 3,6 66,0 172,6
11/2019 7,3 13,2 20,9 16,2 14,3 19,5 27,7 20,4 44 59 81 999 1.011 1.018 W 5,1 64,4 11,4
10/2019 11,7 17,6 21,4 20,8 16,6 24,7 30,5 18,8 43 70 87 1.008 1.016 1.021 SW 2,4 48,3 79,4
09/2019 13,8 20,4 23,4 23,5 22,8 27,1 32,2 18,4 58 78 94 1.009 1.017 1.023 SW 2,5 59,5 184,2
08/2019 19,8 22,8 26,0 26,2 26,6 30,5 36,4 16,6 55 74 84 1.010 1.015 1.019 WNW 3,0 40,2 47,4
Tots els anys disponibles
2019 5,1 15,5 26,1 18,7 10,3 22,7 36,9 31,8 37 68 94 996 1.017 1.033 NW 3,3 66,0 930,2
2018 3,8 15,5 27,3 18,7 7,8 22,5 36,8 33,0 42 72 94 999 1.017 1.030 W 3,6 61,2 701,8
2017 0,8 15,4 26,4 18,6 8,4 22,5 34,0 33,2 3,6 67,6 588,4
2016 5,6 15,2 26,8 18,3 12,1 21,9 37,7 32,1 4,2 70,8 353,4
2015 3,4 15,8 21,7 18,9 22,1 22,7 37,9 34,5 4,3 66,0 453,6
2014 4,8 18,1 26,5 21,1 11,6 24,8 34,6 29,8 4,9 61,2 222,6
2013
Temperatura (°C)
Humitat relativa (%)
Velocitat del vent i ràfega màxima (km/h)
Direcció del vent (°)
Pressió (hPa)
Precipitació (mm)
Nota sobre les dades: s'avisa a l'usuari de la provisionalitat i no oficialitat d'aquestes dades
Logo AVAMET blanc
Web allotjada a Sollutia
Llicència de Creative CommonsLa web d'AVAMET i els seus continguts estan subjectes a una llicència de
Reconeixement - No Comercial - Compartir igual
Últimes estacions: Monteagudo del Castillo - El Portero (Limítrofe-Terol/Soci), Llocnou d'en Fenollet - El Molló (Soci), Castelló de la Plana - Grup Sant Agustí (Soci), Llíria - Urb. San Gerardo (Soci), Xàtiva - Ausiàs March (Soci), Gandia - Parpalló/Borrell (AVAMET), Olocau del Rei - La Magdalena (Electra/Soci), Ademuz - IES Ademuz (Soci), La Jana (Ajuntament Soci), - - -